Juneau, WI

3:30 PM CST on November 23, 2017 (GMT -0600)
Dodge County

Weather History for KUNU - March, 2013

Change the Weather History Date:

Monday, March 4, 2013

  Actual Average Record
Temperature  
Mean Temperature 21 °F -  
Max Temperature 32 °F 31 °F 67 °F (1983)
Min Temperature 10 °F 19 °F -11 °F (2002)
Degree Days  
Heating Degree Days 44    
Moisture  
Dew Point 13 °F    
Average Humidity 67    
Maximum Humidity 80    
Minimum Humidity 55    
Precipitation  
Precipitation 0.00 in - - ()
Sea Level Pressure  
Sea Level Pressure 30.08 in    
Wind  
Wind Speed 7 mph (ENE)    
Max Wind Speed 14 mph    
Max Gust Speed 18 mph    
Visibility 10 miles    
Events      
Averages and records for this station are not official NWS values.
T = Trace of Precipitation, MM = Missing Value Source: NWS Daily Summary

Daily Weather History Graph

Daily Weather History Graph

Search for Another Location

Airport or City:

Trip Planner

Search our weather history database for the weather conditions in past years. The results will help you decide how hot, cold, wet, or windy it might be!

Date:

Astronomy

Mar. 04, 2013 Rise Set
Actual Time 6:25 AM CST 5:47 PM CST
Civil Twilight 5:57 AM CST 6:16 PM CST
Nautical Twilight 5:24 AM CST 6:49 PM CST
Astronomical Twilight 4:50 AM CST 7:22 PM CST
Moon 12:42 AM CST (3/4) 10:21 AM CST (3/4)
Length of Visible Light 12h 19m
Length of Day
11h 22m
Waning Gibbous, 52% of the Moon is Illuminated
Mar 4
Waning Gibbous
Mar 4
Last Quarter
Mar 11
New
Mar 19
First Quarter
Mar 27
Full

Hourly Weather History & Observations

Time (CST) Temp. Windchill Dew Point Humidity Pressure Visibility Wind Dir Wind Speed Gust Speed Precip Events Conditions
12:15 AM 12.2 °F 2.9 °F 3.2 °F 67% 30.09 in 10.0 mi East 5.8 mph - N/A   Clear
12:35 AM 12.2 °F 2.9 °F 3.2 °F 67% 30.09 in 10.0 mi East 5.8 mph - N/A   Clear
12:55 AM 12.2 °F 4.3 °F 3.2 °F 67% 30.09 in 10.0 mi East 4.6 mph - N/A   Clear
1:35 AM 10.4 °F 4.0 °F 3.2 °F 73% 30.11 in 10.0 mi ESE 3.5 mph - N/A   Clear
1:55 AM 10.4 °F 4.0 °F 3.2 °F 73% 30.11 in 10.0 mi ESE 3.5 mph - N/A   Clear
2:15 AM 12.2 °F 2.9 °F 3.2 °F 67% 30.11 in 10.0 mi ESE 5.8 mph - N/A   Clear
2:55 AM 10.4 °F - 3.2 °F 73% 30.11 in 10.0 mi Calm Calm - N/A   Clear
3:15 AM 10.4 °F - 3.2 °F 73% 30.11 in 10.0 mi Calm Calm - N/A   Clear
3:35 AM 10.4 °F - 3.2 °F 73% 30.11 in 10.0 mi Calm Calm - N/A   Clear
3:55 AM 10.4 °F - 3.2 °F 73% 30.11 in 10.0 mi Calm Calm - N/A   Clear
4:15 AM 10.4 °F 4.0 °F 3.2 °F 73% 30.11 in 10.0 mi ENE 3.5 mph - N/A   Clear
4:35 AM 10.4 °F 2.2 °F 3.2 °F 73% 30.11 in 10.0 mi NE 4.6 mph - N/A   Clear
4:55 AM 10.4 °F 4.0 °F 3.2 °F 73% 30.11 in 10.0 mi NNE 3.5 mph - N/A   Clear
5:15 AM 10.4 °F 0.8 °F 3.2 °F 73% 30.11 in 10.0 mi NE 5.8 mph - N/A   Clear
5:35 AM 12.2 °F 1.7 °F 3.2 °F 67% 30.11 in 10.0 mi ENE 6.9 mph - N/A   Clear
5:55 AM 12.2 °F 2.9 °F 3.2 °F 67% 30.11 in 10.0 mi ENE 5.8 mph - N/A   Clear
6:15 AM 10.4 °F 0.8 °F 3.2 °F 73% 30.11 in 10.0 mi NE 5.8 mph - N/A   Clear
6:35 AM 10.4 °F -1.5 °F 3.2 °F 73% 30.11 in 10.0 mi NE 8.1 mph - N/A   Clear
6:55 AM 12.2 °F 1.7 °F 3.2 °F 67% 30.11 in 10.0 mi ENE 6.9 mph - N/A   Clear
7:15 AM 12.2 °F 2.9 °F 3.2 °F 67% 30.11 in 10.0 mi NE 5.8 mph - N/A   Clear
7:35 AM 15.8 °F 10.2 °F 5.0 °F 62% 30.11 in 10.0 mi NE 3.5 mph - N/A   Clear
7:55 AM 17.6 °F 12.3 °F 6.8 °F 63% 30.11 in 10.0 mi NE 3.5 mph - N/A   Clear
8:15 AM 17.6 °F 12.3 °F 8.6 °F 68% 30.11 in 10.0 mi ENE 3.5 mph - N/A   Clear
8:35 AM 19.4 °F 12.8 °F 8.6 °F 63% 30.11 in 10.0 mi NE 4.6 mph - N/A   Clear
8:55 AM 23.0 °F 17.0 °F 10.4 °F 59% 30.10 in 10.0 mi ENE 4.6 mph - N/A   Clear
9:15 AM 24.8 °F 17.9 °F 12.2 °F 59% 30.10 in 10.0 mi ENE 5.8 mph - N/A   Clear
9:35 AM 26.6 °F 19.1 °F 12.2 °F 55% 30.10 in 10.0 mi East 6.9 mph - N/A   Clear
9:55 AM 28.4 °F 19.7 °F 14.0 °F 55% 30.10 in 10.0 mi East 9.2 mph - N/A   Clear
10:15 AM 28.4 °F 19.7 °F 14.0 °F 55% 30.10 in 10.0 mi East 9.2 mph - N/A   Clear
10:35 AM 28.4 °F 18.5 °F 14.0 °F 55% 30.09 in 10.0 mi East 11.5 mph - N/A   Clear
10:55 AM 30.2 °F 21.3 °F 15.8 °F 55% 30.09 in 10.0 mi ENE 10.4 mph - N/A   Clear
11:15 AM 30.2 °F 19.8 °F 17.6 °F 60% 30.09 in 10.0 mi East 13.8 mph - N/A   Clear
11:35 AM 32.0 °F 23.0 °F 17.6 °F 55% 30.09 in 10.0 mi East 11.5 mph - N/A   Clear
11:55 AM 32.0 °F 23.6 °F 17.6 °F 55% 30.08 in 10.0 mi East 10.4 mph - N/A   Clear
12:15 PM 32.0 °F 23.0 °F 17.6 °F 55% 30.07 in 10.0 mi East 11.5 mph - N/A   Clear
12:55 PM 32.0 °F 22.1 °F 19.4 °F 60% 30.06 in 10.0 mi East 13.8 mph - N/A   Scattered Clouds
1:15 PM 32.0 °F 22.5 °F 19.4 °F 60% 30.06 in 10.0 mi East 12.7 mph - N/A   Scattered Clouds
1:35 PM 32.0 °F 23.6 °F 19.4 °F 60% 30.05 in 10.0 mi ENE 10.4 mph - N/A   Scattered Clouds
1:55 PM 32.0 °F 22.1 °F 19.4 °F 60% 30.04 in 10.0 mi East 13.8 mph - N/A   Mostly Cloudy
2:15 PM 32.0 °F 23.6 °F 19.4 °F 60% 30.05 in 10.0 mi ENE 10.4 mph 17.3 mph N/A   Overcast
2:35 PM 32.0 °F 22.1 °F 21.2 °F 64% 30.05 in 10.0 mi East 13.8 mph - N/A   Overcast
3:15 PM 30.2 °F 20.2 °F 21.2 °F 69% 30.04 in 10.0 mi East 12.7 mph 18.4 mph N/A   Overcast
3:35 PM 30.2 °F 19.8 °F 19.4 °F 64% 30.04 in 10.0 mi East 13.8 mph - N/A   Overcast
3:55 PM 30.2 °F 19.8 °F 19.4 °F 64% 30.04 in 10.0 mi East 13.8 mph - N/A   Overcast
4:15 PM 30.2 °F 19.8 °F 19.4 °F 64% 30.04 in 10.0 mi East 13.8 mph - N/A   Overcast
4:35 PM 28.4 °F 18.0 °F 19.4 °F 69% 30.04 in 10.0 mi East 12.7 mph - N/A   Overcast
4:55 PM 28.4 °F 19.7 °F 19.4 °F 69% 30.04 in 10.0 mi East 9.2 mph - N/A   Overcast
5:15 PM 28.4 °F 19.1 °F 19.4 °F 69% 30.04 in 10.0 mi East 10.4 mph - N/A   Overcast
5:35 PM 28.4 °F 18.0 °F 19.4 °F 69% 30.04 in 10.0 mi ENE 12.7 mph - N/A   Overcast
5:55 PM 28.4 °F 19.1 °F 19.4 °F 69% 30.04 in 10.0 mi ENE 10.4 mph - N/A   Overcast
6:15 PM 28.4 °F 20.4 °F 19.4 °F 69% 30.04 in 10.0 mi ENE 8.1 mph - N/A   Overcast
6:35 PM 28.4 °F 19.1 °F 19.4 °F 69% 30.05 in 10.0 mi ENE 10.4 mph 16.1 mph N/A   Overcast
6:55 PM 28.4 °F 19.1 °F 19.4 °F 69% 30.06 in 10.0 mi ENE 10.4 mph - N/A   Overcast
7:15 PM 28.4 °F 18.5 °F 19.4 °F 69% 30.05 in 10.0 mi ENE 11.5 mph - N/A   Overcast
7:35 PM 28.4 °F 19.1 °F 19.4 °F 69% 30.05 in 10.0 mi ENE 10.4 mph - N/A   Overcast
7:55 PM 28.4 °F 19.1 °F 19.4 °F 69% 30.06 in 10.0 mi ENE 10.4 mph - N/A   Overcast
8:15 PM 28.4 °F 19.7 °F 19.4 °F 69% 30.06 in 10.0 mi ENE 9.2 mph - N/A   Overcast
8:35 PM 28.4 °F 20.4 °F 21.2 °F 74% 30.06 in 10.0 mi NE 8.1 mph - N/A   Overcast
8:55 PM 28.4 °F 19.7 °F 21.2 °F 74% 30.06 in 10.0 mi ENE 9.2 mph - N/A   Overcast
9:15 PM 28.4 °F 18.5 °F 21.2 °F 74% 30.06 in 10.0 mi ENE 11.5 mph - N/A   Overcast
9:35 PM 28.4 °F 22.2 °F 21.2 °F 74% 30.07 in 10.0 mi ENE 5.8 mph - N/A   Overcast
9:55 PM 28.4 °F 20.4 °F 21.2 °F 74% 30.07 in 10.0 mi ENE 8.1 mph - N/A   Overcast
10:15 PM 28.4 °F 20.4 °F 21.2 °F 74% 30.06 in 10.0 mi NE 8.1 mph - N/A   Overcast
10:35 PM 28.4 °F 19.7 °F 21.2 °F 74% 30.05 in 10.0 mi NE 9.2 mph - N/A   Overcast
10:55 PM 28.4 °F 21.2 °F 21.2 °F 74% 30.05 in 10.0 mi NE 6.9 mph - N/A   Overcast
11:35 PM 28.4 °F 21.2 °F 23.0 °F 80% 30.06 in 10.0 mi NE 6.9 mph - N/A   Overcast
11:55 PM 28.4 °F 20.4 °F 23.0 °F 80% 30.05 in 10.0 mi NE 8.1 mph - N/A   Overcast